Terminal Aerodrome Forecast
Issued by NWS

Home | Current Version | Previous Version | Graphics & Text | Print | Product List | Glossary On
Versions: 1 2 3 4 5 6 7 8 9 10 11 12 13 14 15 16 17 18
767
FTUS43 KPAH 120203 AAA
TAFCGI
TAF AMD
KCGI 120203Z 1202/1224 06005KT P6SM BKN110
     FM120500 08003KT P6SM BKN045 OVC060
     FM121400 33004KT P6SM SCT015 OVC045
     FM121800 34006KT P6SM BKN015 OVC025=

USA.gov is the U.S. government's official web portal to all federal, state and local government web resources and services.